Time;durP1;ratioP1;P1;durP2;ratioP2;P2;SDS_P1;SDS_P2;PMS_P1;PMS_P2;Temp;Humidity;BMP_temperature;BMP_pressure;BME280_temperature;BME280_humidity;BME280_pressure;Samples;Min_cycle;Max_cycle;Signal;HPM_P1;HPM_P2
2023/06/14 00:01:57;;;;;;;4.70;2.00;;;15.80;72.20;;;;;;5021183;28;20049;-63
2023/06/14 00:04:25;;;;;;;6.38;2.42;;;15.80;72.40;;;;;;5018832;28;20427;-62
2023/06/14 00:06:51;;;;;;;4.47;2.22;;;15.70;72.50;;;;;;4988909;28;20503;-62
2023/06/14 00:09:19;;;;;;;5.22;2.13;;;15.70;72.90;;;;;;5001996;28;20095;-63
2023/06/14 00:11:45;;;;;;;9.88;1.80;;;15.60;73.10;;;;;;5021419;28;20054;-63
2023/06/14 00:14:11;;;;;;;4.05;1.92;;;15.60;73.40;;;;;;4988511;28;20099;-63
2023/06/14 00:16:38;;;;;;;5.80;2.10;;;15.60;73.60;;;;;;5018269;28;20034;-63
2023/06/14 00:19:04;;;;;;;11.27;2.00;;;15.50;73.90;;;;;;4993384;28;20117;-63
2023/06/14 00:21:30;;;;;;;2.63;1.90;;;15.50;74.10;;;;;;5003471;28;20405;-63
2023/06/14 00:23:57;;;;;;;4.32;1.70;;;15.40;74.40;;;;;;5006900;28;20042;-63
2023/06/14 00:26:23;;;;;;;5.28;1.95;;;15.40;74.80;;;;;;5001685;28;20069;-63
2023/06/14 00:28:49;;;;;;;3.03;1.85;;;15.40;75.10;;;;;;5001762;28;20037;-63
2023/06/14 00:31:15;;;;;;;4.65;1.75;;;15.30;75.40;;;;;;4994406;28;20052;-62
2023/06/14 00:33:40;;;;;;;3.75;1.88;;;15.30;75.70;;;;;;5008432;28;20034;-63
2023/06/14 00:36:06;;;;;;;4.82;1.70;;;15.30;76.00;;;;;;5021026;28;20049;-63
2023/06/14 00:38:32;;;;;;;5.47;2.00;;;15.20;76.10;;;;;;5020866;28;20053;-63
2023/06/14 00:40:58;;;;;;;8.13;2.00;;;15.20;76.50;;;;;;5020233;28;20461;-63
2023/06/14 00:43:24;;;;;;;3.17;1.70;;;15.20;76.80;;;;;;4989688;28;20053;-63
2023/06/14 00:45:51;;;;;;;8.15;1.90;;;15.20;77.20;;;;;;5003170;28;20130;-63
2023/06/14 00:48:17;;;;;;;3.58;1.90;;;15.10;77.70;;;;;;5001433;28;20175;-63
2023/06/14 00:50:45;;;;;;;5.13;1.77;;;15.10;78.20;;;;;;5019331;28;20045;-63
2023/06/14 00:53:12;;;;;;;4.57;2.10;;;15.00;78.50;;;;;;5000022;28;20501;-63
2023/06/14 00:55:38;;;;;;;2.45;1.60;;;15.00;79.00;;;;;;5018330;28;20040;-63
2023/06/14 00:58:04;;;;;;;4.82;1.88;;;15.00;79.40;;;;;;4997010;28;20041;-63
2023/06/14 01:00:30;;;;;;;3.58;2.08;;;15.00;80.10;;;;;;5002276;28;20796;-63
2023/06/14 01:02:56;;;;;;;3.80;1.80;;;14.90;80.60;;;;;;4985809;28;20041;-63
2023/06/14 01:05:23;;;;;;;3.55;1.80;;;14.90;81.10;;;;;;5003409;28;20049;-63
2023/06/14 01:08:04;;;;;;;8.77;1.95;;;14.90;81.80;;;;;;4992397;28;20076;-63
2023/06/14 01:10:56;;;;;;;4.40;1.90;;;14.90;82.50;;;;;;5019158;28;20041;-63
2023/06/14 01:13:32;;;;;;;4.47;1.70;;;14.80;83.70;;;;;;5001783;28;20566;-63
2023/06/14 01:15:58;;;;;;;2.88;1.60;;;14.80;84.10;;;;;;5002729;28;20043;-63
2023/06/14 01:18:25;;;;;;;3.90;1.70;;;14.80;84.90;;;;;;4996754;28;20045;-63
2023/06/14 01:20:54;;;;;;;9.73;2.30;;;14.70;85.60;;;;;;4997901;28;20045;-63
2023/06/14 01:23:22;;;;;;;5.68;2.25;;;14.70;86.70;;;;;;5002618;28;20041;-63
2023/06/14 01:25:52;;;;;;;8.20;2.13;;;14.70;87.70;;;;;;5015702;28;20387;-63
2023/06/14 01:28:20;;;;;;;2.78;1.70;;;14.60;88.90;;;;;;5003938;28;20034;-63
2023/06/14 01:30:53;;;;;;;4.80;2.20;;;14.60;89.80;;;;;;4999581;28;20044;-63
2023/06/14 01:33:21;;;;;;;3.90;2.00;;;14.60;90.50;;;;;;5006317;28;20041;-63
2023/06/14 01:35:50;;;;;;;5.63;1.80;;;14.50;90.90;;;;;;5017083;28;20497;-63
2023/06/14 01:38:22;;;;;;;3.30;1.98;;;14.50;91.50;;;;;;5000460;28;20048;-63
2023/06/14 01:40:50;;;;;;;6.90;2.15;;;14.50;92.10;;;;;;5019486;28;20099;-63
2023/06/14 01:43:17;;;;;;;5.63;2.00;;;14.40;92.60;;;;;;4986692;28;20395;-63
2023/06/14 01:45:45;;;;;;;4.45;2.28;;;14.40;93.10;;;;;;5019669;28;20817;-63
2023/06/14 01:48:12;;;;;;;5.03;1.88;;;14.40;93.70;;;;;;5007950;28;20049;-63
2023/06/14 01:50:37;;;;;;;2.97;2.15;;;14.40;94.30;;;;;;4985068;28;20065;-64
2023/06/14 01:53:07;;;;;;;4.28;1.95;;;14.30;94.90;;;;;;4998829;28;20184;-63
2023/06/14 01:55:37;;;;;;;11.52;2.00;;;14.30;95.40;;;;;;5018323;28;20379;-63
2023/06/14 01:58:04;;;;;;;2.97;1.80;;;14.30;95.90;;;;;;5003509;28;20185;-63
2023/06/14 02:00:32;;;;;;;4.82;2.45;;;14.30;96.40;;;;;;5000726;28;20041;-63
2023/06/14 02:02:58;;;;;;;4.38;2.13;;;14.30;96.90;;;;;;5000528;28;20048;-63
2023/06/14 02:05:24;;;;;;;3.65;2.40;;;14.20;97.30;;;;;;4981913;28;20045;-63
2023/06/14 02:07:50;;;;;;;3.85;2.13;;;14.20;97.70;;;;;;5013064;28;20458;-63
2023/06/14 02:10:17;;;;;;;7.07;2.47;;;14.10;98.10;;;;;;4999800;28;20437;-63
2023/06/14 02:12:43;;;;;;;3.05;2.22;;;14.10;98.50;;;;;;5001764;28;20473;-63
2023/06/14 02:15:16;;;;;;;5.75;2.30;;;14.10;98.80;;;;;;5006570;28;20157;-63
2023/06/14 02:17:51;;;;;;;4.28;2.20;;;14.10;99.20;;;;;;4985740;28;20034;-63
2023/06/14 02:20:17;;;;;;;4.35;2.40;;;14.10;99.60;;;;;;4999328;28;20054;-63
2023/06/14 02:22:45;;;;;;;7.30;2.47;;;14.00;99.80;;;;;;5018561;28;20046;-63
2023/06/14 02:25:10;;;;;;;6.28;2.97;;;14.00;99.90;;;;;;4999211;28;20489;-63
2023/06/14 02:27:36;;;;;;;3.38;2.30;;;14.00;99.90;;;;;;5002250;28;20045;-63
2023/06/14 02:30:02;;;;;;;6.95;2.35;;;14.00;99.90;;;;;;5018136;28;20724;-63
2023/06/14 02:32:28;;;;;;;4.75;2.28;;;13.90;99.90;;;;;;4982509;28;20045;-63
2023/06/14 02:34:54;;;;;;;7.78;2.53;;;13.90;99.90;;;;;;5000767;28;20040;-63
2023/06/14 02:37:20;;;;;;;5.18;2.80;;;13.90;99.90;;;;;;5003368;28;20034;-63
2023/06/14 02:39:46;;;;;;;2.85;2.40;;;13.90;99.90;;;;;;4997441;28;20390;-63
2023/06/14 02:42:12;;;;;;;5.03;2.50;;;13.90;99.90;;;;;;5002874;28;20096;-63
2023/06/14 02:44:38;;;;;;;6.35;2.50;;;13.80;99.90;;;;;;5015494;28;20056;-63
2023/06/14 02:47:04;;;;;;;3.78;2.70;;;13.80;99.90;;;;;;5000678;28;20485;-63
2023/06/14 02:49:30;;;;;;;3.42;2.50;;;13.80;99.90;;;;;;5002513;28;20038;-63
2023/06/14 02:51:56;;;;;;;4.55;2.72;;;13.80;99.90;;;;;;5001615;28;20049;-63
2023/06/14 02:54:22;;;;;;;4.20;2.42;;;13.70;99.90;;;;;;4996273;28;20096;-63
2023/06/14 02:56:48;;;;;;;5.72;2.72;;;13.70;99.90;;;;;;5022293;28;20041;-63
2023/06/14 02:59:14;;;;;;;3.75;2.65;;;13.70;99.90;;;;;;4970809;28;20504;-63
2023/06/14 03:01:40;;;;;;;4.07;2.50;;;13.70;99.90;;;;;;4996160;28;20505;-64
2023/06/14 03:04:08;;;;;;;6.93;3.30;;;13.70;99.90;;;;;;5005889;28;20045;-63
2023/06/14 03:06:34;;;;;;;2.83;2.33;;;13.70;99.90;;;;;;5010503;28;20041;-63
2023/06/14 03:09:04;;;;;;;4.50;2.70;;;13.70;99.90;;;;;;5004258;28;20088;-63
2023/06/14 03:11:30;;;;;;;5.70;2.67;;;13.60;99.90;;;;;;4986378;28;20076;-63
2023/06/14 03:13:56;;;;;;;4.90;2.88;;;13.70;99.90;;;;;;4992310;28;20041;-63
2023/06/14 03:16:24;;;;;;;7.68;3.17;;;13.60;99.90;;;;;;5015038;28;20100;-63
2023/06/14 03:18:53;;;;;;;5.57;2.70;;;13.60;99.90;;;;;;5002760;28;20657;-64
2023/06/14 03:21:20;;;;;;;6.03;2.72;;;13.60;99.90;;;;;;4994558;28;20060;-63
2023/06/14 03:23:46;;;;;;;7.70;2.92;;;13.60;99.90;;;;;;5020756;28;20077;-63
2023/06/14 03:26:13;;;;;;;7.50;3.05;;;13.60;99.90;;;;;;4984450;28;20038;-63
2023/06/14 03:28:40;;;;;;;3.83;2.92;;;13.60;99.90;;;;;;5003338;28;20385;-63
2023/06/14 03:31:06;;;;;;;4.78;2.75;;;13.60;99.90;;;;;;5001410;28;20496;-63
2023/06/14 03:33:32;;;;;;;5.43;3.03;;;13.60;99.90;;;;;;5000510;28;20068;-63
2023/06/14 03:35:58;;;;;;;5.80;2.85;;;13.60;99.90;;;;;;5021540;28;20034;-63
2023/06/14 03:38:23;;;;;;;4.95;2.90;;;13.60;99.90;;;;;;5019750;28;20084;-63
2023/06/14 03:40:49;;;;;;;9.88;3.08;;;13.60;99.90;;;;;;5002726;28;20076;-63
2023/06/14 03:43:15;;;;;;;4.55;2.70;;;13.60;99.90;;;;;;4992050;28;20032;-63
2023/06/14 03:45:41;;;;;;;8.32;2.67;;;13.60;99.90;;;;;;5018612;28;20041;-63
2023/06/14 03:48:08;;;;;;;5.40;3.20;;;13.60;99.90;;;;;;4999324;28;20034;-63
2023/06/14 03:50:34;;;;;;;3.40;2.60;;;13.60;99.90;;;;;;4985376;28;20046;-63
2023/06/14 03:53:01;;;;;;;3.65;2.75;;;13.60;99.90;;;;;;4986538;28;20115;-63
2023/06/14 03:55:27;;;;;;;6.15;2.90;;;13.70;99.90;;;;;;5004420;28;20839;-63
2023/06/14 03:57:53;;;;;;;4.97;3.20;;;13.70;99.90;;;;;;5003324;28;20421;-63
2023/06/14 04:00:19;;;;;;;11.02;2.90;;;13.70;99.90;;;;;;5001405;28;20041;-63
2023/06/14 04:02:45;;;;;;;5.80;3.30;;;13.70;99.90;;;;;;5003693;28;20433;-63
2023/06/14 04:05:11;;;;;;;7.47;3.03;;;13.70;99.90;;;;;;4992236;28;20041;-63
2023/06/14 04:07:40;;;;;;;6.13;3.15;;;13.80;99.90;;;;;;5003980;28;20042;-63
2023/06/14 04:10:08;;;;;;;6.53;3.15;;;13.80;99.90;;;;;;5007909;28;20430;-63
2023/06/14 04:12:33;;;;;;;7.00;3.00;;;13.90;99.90;;;;;;5000089;28;20540;-63
2023/06/14 04:15:00;;;;;;;5.63;3.00;;;13.90;99.90;;;;;;5004427;28;20046;-64
2023/06/14 04:17:26;;;;;;;8.05;3.35;;;13.90;99.90;;;;;;4971658;28;20041;-63
2023/06/14 04:19:52;;;;;;;7.03;3.05;;;14.00;99.90;;;;;;5006866;28;20581;-63
2023/06/14 04:22:18;;;;;;;6.10;3.00;;;14.00;99.90;;;;;;5000777;28;20109;-63
2023/06/14 04:24:44;;;;;;;4.47;2.80;;;14.10;99.90;;;;;;4985193;28;20077;-63
2023/06/14 04:27:10;;;;;;;5.90;3.28;;;14.20;99.90;;;;;;5000131;28;20049;-63
2023/06/14 04:29:36;;;;;;;6.03;3.20;;;14.30;99.90;;;;;;5001695;28;20037;-64
2023/06/14 04:32:02;;;;;;;5.72;2.90;;;14.30;99.90;;;;;;4985277;28;20041;-63
2023/06/14 04:34:33;;;;;;;5.30;2.85;;;14.40;99.90;;;;;;4977555;28;20949;-63
2023/06/14 04:37:01;;;;;;;4.38;2.75;;;14.40;99.90;;;;;;4982695;28;20077;-63
2023/06/14 04:39:27;;;;;;;6.13;3.35;;;14.50;99.90;;;;;;5014579;28;20049;-63
2023/06/14 04:41:56;;;;;;;8.75;2.95;;;14.50;99.90;;;;;;4998692;28;20049;-63
2023/06/14 04:44:29;;;;;;;8.00;3.25;;;14.60;99.90;;;;;;4996656;28;20049;-63
2023/06/14 04:46:58;;;;;;;6.07;3.15;;;14.60;99.90;;;;;;4972745;28;20056;-63
2023/06/14 04:49:27;;;;;;;7.05;3.00;;;14.70;99.90;;;;;;5000775;28;20533;-63
2023/06/14 04:51:57;;;;;;;7.65;2.90;;;14.80;99.90;;;;;;4988216;28;20120;-63
2023/06/14 04:54:24;;;;;;;8.88;3.55;;;14.80;99.90;;;;;;4982432;28;20048;-63
2023/06/14 04:56:50;;;;;;;4.45;3.00;;;14.80;99.90;;;;;;5000292;28;20526;-64
2023/06/14 04:59:17;;;;;;;6.38;3.30;;;14.90;99.90;;;;;;4980618;28;20157;-63
2023/06/14 05:01:48;;;;;;;5.43;3.15;;;14.90;99.90;;;;;;4982782;28;20457;-63
2023/06/14 05:04:17;;;;;;;5.60;3.03;;;15.00;99.90;;;;;;5014569;28;20042;-63
2023/06/14 05:06:48;;;;;;;10.27;3.63;;;15.00;99.90;;;;;;4992402;28;20504;-63
2023/06/14 05:09:15;;;;;;;13.23;3.40;;;15.10;99.90;;;;;;4993769;28;20084;-63
2023/06/14 05:11:44;;;;;;;5.10;3.75;;;15.10;99.90;;;;;;4980526;28;20041;-63
2023/06/14 05:14:14;;;;;;;11.15;3.63;;;15.10;99.90;;;;;;5012673;28;20167;-63
2023/06/14 05:16:40;;;;;;;9.15;3.53;;;15.20;99.90;;;;;;5000356;28;20047;-63
2023/06/14 05:19:06;;;;;;;4.13;2.92;;;15.30;99.90;;;;;;4997128;28;20489;-63
2023/06/14 05:21:34;;;;;;;8.45;3.55;;;15.30;99.90;;;;;;4995752;28;20107;-63
2023/06/14 05:24:00;;;;;;;5.15;3.33;;;15.30;99.90;;;;;;5000279;28;20168;-63
2023/06/14 05:26:30;;;;;;;9.77;3.47;;;15.40;99.90;;;;;;4981522;28;20036;-63
2023/06/14 05:28:57;;;;;;;11.00;3.28;;;15.50;99.90;;;;;;4995380;28;20587;-63
2023/06/14 05:31:23;;;;;;;6.90;3.28;;;15.50;99.90;;;;;;4995482;28;21056;-64
2023/06/14 05:33:51;;;;;;;8.77;3.45;;;15.50;99.90;;;;;;4971580;28;20519;-63
2023/06/14 05:36:16;;;;;;;6.30;3.53;;;15.60;99.90;;;;;;4999153;28;20159;-63
2023/06/14 05:38:42;;;;;;;5.88;3.45;;;15.70;99.90;;;;;;5015327;28;20037;-63
2023/06/14 05:41:08;;;;;;;8.57;3.58;;;15.70;99.90;;;;;;5010554;28;21483;-63
2023/06/14 05:43:34;;;;;;;6.82;3.55;;;15.70;99.90;;;;;;5013400;28;20091;-61
2023/06/14 05:46:00;;;;;;;9.15;3.40;;;15.80;99.90;;;;;;4985476;28;20037;-61
2023/06/14 05:48:26;;;;;;;6.72;3.22;;;15.90;99.90;;;;;;4980662;28;20044;-61
2023/06/14 05:50:51;;;;;;;6.03;3.30;;;16.00;99.90;;;;;;5000544;28;20044;-61
2023/06/14 05:53:17;;;;;;;7.07;3.47;;;16.00;99.90;;;;;;4970149;28;20107;-61
2023/06/14 05:55:43;;;;;;;7.80;3.47;;;16.10;99.90;;;;;;5000001;28;20068;-62
2023/06/14 05:58:10;;;;;;;6.72;3.45;;;16.20;99.90;;;;;;5008124;28;20033;-61
2023/06/14 06:00:36;;;;;;;6.50;4.00;;;16.30;99.90;;;;;;4992555;28;20065;-62
2023/06/14 06:03:02;;;;;;;6.28;3.53;;;16.40;99.90;;;;;;4997882;28;20045;-61
2023/06/14 06:05:28;;;;;;;9.15;3.55;;;16.50;99.90;;;;;;4996786;28;20038;-61
2023/06/14 06:07:53;;;;;;;5.75;3.33;;;16.60;99.90;;;;;;5012612;28;20045;-62
2023/06/14 06:10:19;;;;;;;6.47;3.55;;;16.70;99.90;;;;;;4995882;28;20029;-61
2023/06/14 06:12:47;;;;;;;8.68;3.70;;;16.80;99.90;;;;;;5006987;28;20046;-61
2023/06/14 06:15:12;;;;;;;6.68;3.70;;;16.90;99.90;;;;;;5014338;28;20041;-61
2023/06/14 06:17:39;;;;;;;10.38;3.65;;;17.00;99.90;;;;;;5001146;28;20050;-61
2023/06/14 06:20:08;;;;;;;6.05;3.83;;;17.00;99.90;;;;;;5002895;28;20521;-61
2023/06/14 06:22:34;;;;;;;7.10;3.38;;;17.10;99.90;;;;;;5018487;28;20486;-61
2023/06/14 06:25:00;;;;;;;7.00;4.20;;;17.20;99.90;;;;;;5010159;28;20038;-61
2023/06/14 06:27:26;;;;;;;8.20;3.72;;;17.30;99.90;;;;;;5018832;28;20048;-61
2023/06/14 06:29:51;;;;;;;6.10;3.60;;;17.40;99.90;;;;;;5019459;28;20405;-61
2023/06/14 06:32:17;;;;;;;5.40;3.45;;;17.60;99.90;;;;;;4989655;28;20044;-61
2023/06/14 06:34:43;;;;;;;8.27;3.38;;;17.70;99.70;;;;;;5000553;28;20038;-60
2023/06/14 06:37:09;;;;;;;5.18;3.45;;;17.80;99.30;;;;;;5000504;28;20099;-61
2023/06/14 06:39:35;;;;;;;5.60;3.47;;;17.90;99.00;;;;;;4981125;28;20090;-61
2023/06/14 06:42:01;;;;;;;7.90;3.13;;;18.00;98.80;;;;;;4988629;28;20046;-61
2023/06/14 06:44:27;;;;;;;7.18;3.13;;;18.10;98.70;;;;;;5016143;28;20030;-60
2023/06/14 06:46:52;;;;;;;4.55;3.00;;;18.20;98.70;;;;;;4996008;28;20084;-61
2023/06/14 06:49:18;;;;;;;5.63;3.40;;;18.30;98.30;;;;;;4990121;28;20038;-61
2023/06/14 06:52:07;;;;;;;10.18;3.55;;;18.40;98.10;;;;;;4994718;28;20054;-61
2023/06/14 06:54:34;;;;;;;7.75;3.13;;;18.50;97.80;;;;;;5005645;28;20042;-61
2023/06/14 06:57:01;;;;;;;6.03;3.10;;;18.70;97.50;;;;;;5013380;28;20497;-61
2023/06/14 06:59:27;;;;;;;5.68;2.72;;;18.80;97.20;;;;;;4994893;28;20461;-61
2023/06/14 07:01:53;;;;;;;6.00;3.00;;;18.90;96.70;;;;;;4997730;28;20038;-62
2023/06/14 07:04:19;;;;;;;4.32;2.70;;;19.00;96.10;;;;;;5015699;28;20048;-61
2023/06/14 07:06:46;;;;;;;6.13;3.33;;;19.20;95.90;;;;;;5002826;28;20044;-62
2023/06/14 07:09:14;;;;;;;7.05;3.40;;;19.30;95.50;;;;;;5010669;28;20080;-61
2023/06/14 07:11:41;;;;;;;6.55;2.97;;;19.40;95.10;;;;;;5021003;28;20100;-61
2023/06/14 07:14:06;;;;;;;4.70;2.90;;;19.50;94.60;;;;;;4990504;28;20132;-61
2023/06/14 07:16:32;;;;;;;5.43;2.70;;;19.50;94.20;;;;;;5010961;28;20132;-61
2023/06/14 07:18:58;;;;;;;6.90;2.90;;;19.60;94.00;;;;;;5007838;28;20087;-61
2023/06/14 07:21:25;;;;;;;7.13;2.88;;;19.80;93.80;;;;;;4997911;28;20136;-61
2023/06/14 07:23:54;;;;;;;5.30;2.85;;;19.90;93.50;;;;;;4998140;28;20116;-61
2023/06/14 07:26:21;;;;;;;6.22;2.95;;;20.00;93.20;;;;;;5000222;28;20100;-61
2023/06/14 07:28:48;;;;;;;3.13;2.40;;;20.10;92.80;;;;;;5010167;28;20107;-61
2023/06/14 07:31:19;;;;;;;4.55;2.50;;;20.20;92.20;;;;;;5013488;28;20081;-61
2023/06/14 07:33:45;;;;;;;5.60;2.72;;;20.30;91.60;;;;;;4976506;28;20038;-61
2023/06/14 07:36:11;;;;;;;4.15;2.70;;;20.40;90.90;;;;;;5012920;28;20060;-61
2023/06/14 07:38:37;;;;;;;7.40;2.70;;;20.50;90.70;;;;;;4973764;28;20176;-61
2023/06/14 07:41:03;;;;;;;6.55;2.55;;;20.70;90.40;;;;;;5009861;28;20053;-61
2023/06/14 07:43:29;;;;;;;5.88;2.53;;;20.80;89.50;;;;;;5009989;28;20044;-62
2023/06/14 07:45:55;;;;;;;11.00;2.83;;;21.00;89.00;;;;;;4988942;28;20713;-61
2023/06/14 07:48:21;;;;;;;8.43;2.53;;;21.10;87.30;;;;;;5008474;28;20559;-61
2023/06/14 07:50:47;;;;;;;4.18;2.40;;;21.20;86.60;;;;;;5003529;28;20027;-61
2023/06/14 07:53:12;;;;;;;5.90;2.35;;;21.30;85.10;;;;;;5015414;28;20042;-61
2023/06/14 07:55:39;;;;;;;6.78;2.35;;;21.40;84.70;;;;;;5014206;28;20433;-62
2023/06/14 07:58:06;;;;;;;6.55;2.40;;;21.50;83.90;;;;;;5000109;28;20045;-61
2023/06/14 08:00:32;;;;;;;3.83;2.28;;;21.60;82.30;;;;;;5013608;28;20043;-61
2023/06/14 08:02:59;;;;;;;6.57;2.60;;;21.60;81.10;;;;;;5009348;28;20119;-61
2023/06/14 08:05:28;;;;;;;5.57;2.47;;;21.60;80.00;;;;;;5014613;28;20059;-61
2023/06/14 08:07:55;;;;;;;6.95;2.47;;;21.70;79.50;;;;;;5004392;28;20057;-61
2023/06/14 08:10:21;;;;;;;5.80;2.40;;;21.80;79.30;;;;;;5015401;28;20513;-61
2023/06/14 08:12:49;;;;;;;4.10;2.35;;;21.90;79.60;;;;;;4981744;28;20037;-61
2023/06/14 08:15:16;;;;;;;5.43;2.40;;;22.00;79.10;;;;;;4999771;28;20049;-61
2023/06/14 08:17:45;;;;;;;6.43;2.72;;;22.10;78.60;;;;;;5000790;28;20064;-61
2023/06/14 08:20:11;;;;;;;7.85;2.45;;;22.20;76.80;;;;;;4982793;28;20452;-61
2023/06/14 08:22:37;;;;;;;8.82;2.40;;;22.20;77.30;;;;;;5017395;28;20406;-62
2023/06/14 08:25:04;;;;;;;4.03;2.30;;;22.30;76.80;;;;;;4992250;28;20053;-61
2023/06/14 08:27:30;;;;;;;3.33;2.15;;;22.40;76.30;;;;;;4984073;28;20040;-61
2023/06/14 08:29:56;;;;;;;4.13;2.30;;;22.60;75.80;;;;;;5019995;28;20037;-61
2023/06/14 08:32:22;;;;;;;6.28;2.40;;;22.70;75.10;;;;;;4997870;28;20053;-60
2023/06/14 08:34:48;;;;;;;9.70;2.35;;;22.80;74.70;;;;;;5000116;28;20048;-61
2023/06/14 08:37:14;;;;;;;4.55;2.47;;;22.90;74.00;;;;;;5012251;28;20045;-61
2023/06/14 08:39:39;;;;;;;12.07;2.60;;;23.00;74.20;;;;;;4985783;28;20533;-61
2023/06/14 08:42:07;;;;;;;6.28;2.40;;;23.00;73.60;;;;;;4986830;28;20045;-60
2023/06/14 08:44:33;;;;;;;3.70;2.03;;;23.10;72.90;;;;;;5017713;28;20041;-61
2023/06/14 08:47:06;;;;;;;5.18;2.20;;;23.30;73.00;;;;;;4994633;28;20045;-61
2023/06/14 08:49:32;;;;;;;;;;;23.40;72.30;;;;;;5014073;28;20044;-61
2023/06/14 08:52:00;;;;;;;6.15;2.50;;;23.50;71.10;;;;;;5016006;28;20401;-61
2023/06/14 08:54:29;;;;;;;3.85;2.13;;;23.50;71.20;;;;;;5006999;28;20045;-60
2023/06/14 08:56:59;;;;;;;5.55;2.40;;;23.70;71.20;;;;;;5009649;28;20061;-61
2023/06/14 08:59:26;;;;;;;6.20;2.05;;;23.80;70.60;;;;;;5011676;28;20168;-61
2023/06/14 09:01:54;;;;;;;7.25;2.22;;;23.90;70.00;;;;;;5015930;28;20124;-61
2023/06/14 09:04:24;;;;;;;11.32;2.22;;;24.00;69.70;;;;;;5014825;28;20048;-62
2023/06/14 09:06:52;;;;;;;8.30;2.00;;;24.00;68.30;;;;;;5015207;28;20054;-60
2023/06/14 09:09:22;;;;;;;6.53;2.30;;;24.00;68.70;;;;;;5015136;28;20049;-61
2023/06/14 09:11:50;;;;;;;8.27;2.60;;;24.10;68.70;;;;;;5011280;28;20129;-61
2023/06/14 09:14:17;;;;;;;9.32;2.33;;;24.20;68.10;;;;;;4995907;28;20042;-61
2023/06/14 09:16:43;;;;;;;5.75;2.00;;;24.30;67.60;;;;;;5012573;28;20033;-60
2023/06/14 09:19:20;;;;;;;3.95;2.40;;;24.30;67.00;;;;;;4995981;28;20033;-61
2023/06/14 09:21:48;;;;;;;2.70;2.00;;;24.30;67.10;;;;;;5013969;28;20099;-61
2023/06/14 09:24:14;;;;;;;5.80;2.40;;;24.40;67.60;;;;;;4996330;28;20042;-61
2023/06/14 09:26:40;;;;;;;5.45;2.30;;;24.40;67.50;;;;;;5007803;28;20073;-62
2023/06/14 09:29:06;;;;;;;9.82;2.40;;;24.50;67.80;;;;;;4995051;28;20038;-60
2023/06/14 09:31:32;;;;;;;6.45;2.30;;;24.60;66.80;;;;;;5014061;28;20054;-61
2023/06/14 09:34:01;;;;;;;5.88;2.25;;;24.70;67.00;;;;;;5016014;28;20057;-61
2023/06/14 09:36:27;;;;;;;6.25;2.25;;;24.80;66.70;;;;;;4999483;28;20038;-61
2023/06/14 09:38:58;;;;;;;3.60;2.35;;;24.80;65.80;;;;;;5014500;28;20044;-61
2023/06/14 09:41:40;;;;;;;5.93;2.20;;;24.90;66.00;;;;;;5002437;28;20119;-61
2023/06/14 09:44:07;;;;;;;;;;;24.90;65.10;;;;;;5017006;28;20122;-61
2023/06/14 09:46:35;;;;;;;4.22;2.20;;;25.00;65.20;;;;;;4996370;28;19917;-61
2023/06/14 09:49:02;;;;;;;7.75;2.45;;;25.00;64.70;;;;;;4999531;28;20044;-61
2023/06/14 09:51:31;;;;;;;7.50;2.38;;;25.10;63.80;;;;;;5016561;28;20049;-61
2023/06/14 09:54:04;;;;;;;3.03;2.05;;;25.10;63.30;;;;;;5011722;28;20541;-61
2023/06/14 09:56:44;;;;;;;12.68;2.53;;;25.20;62.90;;;;;;5013972;28;20038;-61
2023/06/14 09:59:11;;;;;;;5.55;2.25;;;25.20;63.50;;;;;;5010730;28;20042;-61
2023/06/14 10:01:43;;;;;;;2.83;1.80;;;25.40;62.90;;;;;;5011217;28;20052;-62
2023/06/14 10:04:10;;;;;;;5.93;2.25;;;25.50;61.90;;;;;;5018524;28;20044;-61
2023/06/14 10:06:39;;;;;;;3.95;2.10;;;25.50;61.20;;;;;;5010018;28;20049;-62
2023/06/14 10:09:08;;;;;;;5.70;2.10;;;25.60;61.50;;;;;;4992684;28;20046;-61
2023/06/14 10:11:35;;;;;;;3.33;2.22;;;25.70;60.40;;;;;;5013258;28;20050;-61
2023/06/14 10:14:04;;;;;;;3.95;1.90;;;25.70;60.00;;;;;;5012138;28;20148;-61
2023/06/14 10:16:36;;;;;;;3.33;1.92;;;25.80;60.30;;;;;;5002749;28;22117;-62
2023/06/14 10:19:14;;;;;;;4.07;1.90;;;25.90;60.30;;;;;;5014819;28;20118;-61
2023/06/14 10:21:46;;;;;;;3.72;2.00;;;26.00;60.50;;;;;;5010523;28;20077;-61
2023/06/14 10:24:15;;;;;;;4.57;1.90;;;26.10;60.20;;;;;;4997054;28;20041;-61
2023/06/14 10:26:52;;;;;;;4.30;2.05;;;26.20;59.60;;;;;;5013636;28;20045;-61
2023/06/14 10:29:18;;;;;;;5.07;1.85;;;26.20;58.90;;;;;;5011872;28;20041;-61
2023/06/14 10:31:48;;;;;;;3.00;1.60;;;26.10;59.20;;;;;;5015296;28;20082;-61
2023/06/14 10:34:25;;;;;;;8.05;2.05;;;26.20;58.80;;;;;;5013750;28;20037;-61
2023/06/14 10:37:11;;;;;;;8.88;2.30;;;26.20;58.70;;;;;;5014099;28;20128;-59
2023/06/14 10:39:45;;;;;;;4.53;1.80;;;26.20;58.60;;;;;;4997646;28;20490;-61
2023/06/14 10:42:12;;;;;;;6.43;1.95;;;26.30;58.30;;;;;;4997382;28;20478;-61
2023/06/14 10:44:55;;;;;;;3.03;1.90;;;26.30;57.80;;;;;;5001138;28;20049;-61
2023/06/14 10:47:22;;;;;;;4.88;1.90;;;26.40;58.20;;;;;;5002088;28;20049;-61
2023/06/14 10:49:51;;;;;;;6.13;2.05;;;26.50;58.00;;;;;;4993090;28;20492;-62
2023/06/14 10:52:21;;;;;;;9.57;2.40;;;26.60;57.80;;;;;;5015009;28;20449;-61
2023/06/14 10:55:01;;;;;;;3.15;2.03;;;26.70;58.10;;;;;;5012270;28;20045;-61
2023/06/14 10:57:27;;;;;;;3.45;2.20;;;26.70;58.00;;;;;;5010300;28;20064;-61
2023/06/14 10:59:54;;;;;;;8.93;2.20;;;26.80;58.20;;;;;;5015914;28;20525;-61
2023/06/14 11:02:33;;;;;;;5.75;1.83;;;26.80;57.50;;;;;;5011522;28;20099;-61
2023/06/14 11:05:05;;;;;;;9.95;2.20;;;26.90;57.70;;;;;;5013680;28;20056;-61
2023/06/14 11:07:55;;;;;;;3.47;1.92;;;26.80;56.40;;;;;;5016345;28;20398;-61
2023/06/14 11:10:27;;;;;;;4.75;1.88;;;26.80;56.70;;;;;;4995725;28;20119;-61
2023/06/14 11:12:55;;;;;;;5.68;2.08;;;27.00;56.60;;;;;;5013222;28;20046;-60
2023/06/14 11:15:28;;;;;;;4.35;2.10;;;27.10;56.50;;;;;;5016300;28;20084;-61
2023/06/14 11:17:57;;;;;;;5.82;1.85;;;27.20;55.80;;;;;;5016781;28;20521;-61
2023/06/14 11:20:26;;;;;;;3.03;2.10;;;27.10;55.70;;;;;;4987054;28;20050;-61
2023/06/14 11:22:53;;;;;;;6.70;1.98;;;27.20;55.70;;;;;;5000356;28;20441;-61
2023/06/14 11:25:19;;;;;;;5.00;1.92;;;27.20;56.20;;;;;;5016842;28;20045;-60
2023/06/14 11:27:46;;;;;;;9.57;1.77;;;27.30;56.20;;;;;;5018257;28;20072;-61
2023/06/14 11:30:13;;;;;;;5.80;1.90;;;27.40;56.30;;;;;;5001605;28;20477;-62
2023/06/14 11:32:39;;;;;;;2.28;1.88;;;27.60;56.10;;;;;;5020202;28;20703;-61
2023/06/14 11:35:05;;;;;;;3.45;2.00;;;27.70;55.90;;;;;;5022546;28;20053;-60
2023/06/14 11:37:35;;;;;;;2.30;1.83;;;27.70;55.30;;;;;;5006144;28;20108;-61
2023/06/14 11:40:01;;;;;;;2.90;1.90;;;27.70;55.40;;;;;;5000274;28;20041;-60
2023/06/14 11:42:28;;;;;;;4.03;1.80;;;27.50;54.80;;;;;;5018154;28;20059;-61
2023/06/14 11:44:55;;;;;;;4.68;1.70;;;27.30;55.00;;;;;;5017767;28;20118;-61
2023/06/14 11:47:21;;;;;;;2.47;1.70;;;27.00;54.80;;;;;;4992224;28;20050;-61
2023/06/14 11:49:47;;;;;;;3.38;1.60;;;27.00;54.90;;;;;;5001954;28;20068;-61
2023/06/14 11:52:13;;;;;;;4.47;1.40;;;26.70;54.20;;;;;;5018409;28;20046;-61
2023/06/14 11:54:40;;;;;;;4.25;1.45;;;26.60;54.60;;;;;;4998310;28;20096;-60
2023/06/14 11:57:07;;;;;;;4.90;1.70;;;26.80;54.80;;;;;;5017822;28;20073;-61
2023/06/14 11:59:40;;;;;;;3.00;1.30;;;27.00;54.80;;;;;;5019944;28;20095;-61
2023/06/14 12:02:06;;;;;;;2.22;1.40;;;27.20;54.10;;;;;;5002562;28;20069;-61
2023/06/14 12:04:32;;;;;;;3.72;1.50;;;27.40;54.20;;;;;;5018360;28;20126;-61
2023/06/14 12:07:14;;;;;;;3.15;1.50;;;27.60;53.90;;;;;;5019512;28;20493;-61
2023/06/14 12:10:00;;;;;;;6.32;1.60;;;27.80;53.20;;;;;;5019733;28;20041;-61
2023/06/14 12:12:26;;;;;;;4.47;1.30;;;27.70;51.70;;;;;;5016610;28;20053;-61
2023/06/14 12:14:53;;;;;;;1.75;1.40;;;27.70;52.60;;;;;;5009856;28;20038;-62
2023/06/14 12:17:19;;;;;;;1.20;1.10;;;27.90;52.90;;;;;;5004360;28;23556;-61
2023/06/14 12:19:46;;;;;;;6.82;1.67;;;27.80;52.50;;;;;;5012815;28;20052;-61
2023/06/14 12:22:13;;;;;;;6.45;1.63;;;27.80;52.60;;;;;;5012430;28;20065;-61
2023/06/14 12:24:42;;;;;;;6.93;1.50;;;27.90;52.90;;;;;;4995220;28;20137;-62
2023/06/14 12:27:08;;;;;;;6.60;1.40;;;28.10;52.70;;;;;;5019700;28;20496;-61
2023/06/14 12:29:34;;;;;;;3.35;1.45;;;28.40;53.70;;;;;;5016485;28;20045;-61
2023/06/14 12:32:00;;;;;;;1.73;1.40;;;28.70;53.60;;;;;;4998427;28;20477;-61
2023/06/14 12:34:30;;;;;;;1.98;1.50;;;28.80;52.70;;;;;;5000724;28;20134;-61
2023/06/14 12:36:57;;;;;;;4.18;1.60;;;28.90;52.60;;;;;;5015454;28;21975;-61
2023/06/14 12:39:23;;;;;;;26.52;1.60;;;29.10;52.50;;;;;;5017148;28;20070;-61
2023/06/14 12:41:48;;;;;;;3.58;1.20;;;29.30;51.40;;;;;;4994685;28;20037;-61
2023/06/14 12:44:15;;;;;;;4.28;1.40;;;29.40;51.10;;;;;;5016089;28;20079;-61
2023/06/14 12:46:43;;;;;;;2.35;1.30;;;29.40;51.00;;;;;;5016043;28;20129;-61
2023/06/14 12:49:10;;;;;;;3.35;1.30;;;29.30;50.70;;;;;;4995040;28;20049;-61
2023/06/14 12:51:37;;;;;;;2.05;1.40;;;29.30;50.20;;;;;;5019944;28;20041;-61